Flight Track Log - Related Links

Times and Time Zones

All times are in EDT time to prevent confusion due to time zone crossing. See the N569TA flight status page for this flight to view local times or setup timezone preferences in your user account.

Time Position Orientation Groundspeed Altitude Reporting Facility
EDT Latitude Longitude Course Direction KTS MPH feet Rate Location/Type
Wed 05:34:43 PM 32.6833 -83.7000 270° West 195 224 2,200  Level Atlanta TRACON
Wed 05:35:43 PM 32.6833 -83.7833 270° West 239 275 5,200 3,407 Climbing Atlanta TRACON
Wed 05:36:41 PM 32.6858 -83.8514 273° West 243 280 8,900 3,051 Climbing Atlanta Center
Wed 05:37:41 PM 32.6961 -83.9156 281° West 230 265 11,200 2,400 Climbing Atlanta Center
Wed 05:38:41 PM 32.7442 -83.9672 318° Northwest 203 234 13,700 2,100 Climbing Atlanta Center
Wed 05:39:41 PM 32.8111 -84.0042 335° Northwest 228 262 15,400 1,550 Climbing Atlanta Center
Wed 05:40:41 PM 32.8864 -84.0389 339° North 252 290 16,800 1,350 Climbing Atlanta Center
Wed 05:41:41 PM 32.9594 -84.0783 336° Northwest 275 316 18,100 1,450 Climbing Atlanta Center
Wed 05:42:41 PM 33.0344 -84.1231 333° Northwest 285 328 19,700 1,550 Climbing Atlanta Center
Wed 05:43:41 PM 33.1075 -84.1578 338° Northwest 290 334 21,200 1,600 Climbing Atlanta Center
Wed 05:44:41 PM 33.1806 -84.1978 335° Northwest 290 334 22,900 1,500 Climbing Atlanta Center
Wed 05:45:41 PM 33.2536 -84.2375 336° Northwest 290 334 24,200 1,450 Climbing Atlanta Center
Wed 05:46:41 PM 33.3264 -84.2775 335° Northwest 285 328 25,800 1,550 Climbing Atlanta Center
Wed 05:47:41 PM 33.3994 -84.3150 337° Northwest 285 328 27,300 1,450 Climbing Atlanta Center
Wed 05:48:41 PM 33.4725 -84.3550 335° Northwest 279 321 28,700 1,450 Climbing Atlanta Center
Wed 05:49:41 PM 33.5453 -84.3928 337° Northwest 279 321 30,200 1,450 Climbing Atlanta Center
Wed 05:50:41 PM 33.6119 -84.4331 333° Northwest 279 321 31,600 1,250 Climbing Atlanta Center
Wed 05:51:41 PM 33.6956 -84.4658 342° North 279 321 32,700 1,100 Climbing Atlanta Center
Wed 05:52:41 PM 33.7664 -84.4861 347° North 284 327 33,800 1,050 Climbing Atlanta Center
Wed 05:53:41 PM 33.8456 -84.5142 344° North 289 333 34,800 950 Climbing Atlanta Center
Wed 05:54:41 PM 33.9164 -84.5394 344° North 289 333 35,700 950 Climbing Atlanta Center
Wed 05:55:41 PM 33.9936 -84.5675 343° North 289 333 36,700 800 Climbing Atlanta Center
Wed 05:56:41 PM 34.0706 -84.5956 343° North 289 333 37,300 550 Climbing Atlanta Center
Wed 05:57:41 PM 34.1644 -84.6239 346° North 298 343 37,800 500 Climbing Atlanta Center
Wed 05:58:41 PM 34.2456 -84.6519 344° North 304 350 38,300 500 Climbing Atlanta Center
Wed 05:59:41 PM 34.3331 -84.6803 345° North 304 350 38,800 500 Climbing Atlanta Center
Wed 06:00:41 PM 34.4164 -84.7111 343° North 310 357 39,300 450 Climbing Atlanta Center
Wed 06:01:41 PM 34.4914 -84.7369 344° North 310 357 39,700 350 Climbing Atlanta Center
Wed 06:02:41 PM 34.5789 -84.7678 344° North 315 362 40,000 150 Climbing Atlanta Center
Wed 06:03:41 PM 34.6622 -84.7989 343° North 324 373 40,000  Level Atlanta Center
Wed 06:04:41 PM 34.7539 -84.8300 344° North 324 373 40,000  Level Atlanta Center
Wed 06:05:41 PM 34.8475 -84.8639 343° North 324 373 40,000  Level Atlanta Center
Wed 06:06:41 PM 34.9433 -84.8978 344° North 336 387 40,000  Level Atlanta Center
Wed 06:07:41 PM 35.0369 -84.9292 345° North 341 392 40,000  Level Atlanta Center
Wed 06:08:41 PM 35.1411 -84.9658 344° North 341 392 40,000  Level Atlanta Center
Wed 06:09:41 PM 35.2367 -85.0025 343° North 346 398 40,000  Level Atlanta Center
Wed 06:10:41 PM 35.3344 -85.0367 344° North 353 406 40,000  Level Atlanta Center
Wed 06:11:41 PM 35.4322 -85.0711 344° North 359 413 40,000  Level Atlanta Center
Wed 06:12:41 PM 35.5281 -85.1081 343° North 359 413 40,000  Level Atlanta Center
Wed 06:13:41 PM 35.6258 -85.1450 343° North 359 413 40,000  Level Atlanta Center
Wed 06:14:41 PM 35.7256 -85.1797 344° North 365 420 40,000  Level Atlanta Center
Wed 06:17:01 PM 35.9481 -85.2564 344° North 375 432 40,000  Level Indianapolis Center
Wed 06:18:03 PM 36.0483 -85.2939 343° North 373 429 40,000  Level Indianapolis Center
Wed 06:19:05 PM 36.1478 -85.3303 344° North 371 427 40,000  Level Indianapolis Center
Wed 06:20:07 PM 36.2694 -85.3744 344° North 376 433 40,000  Level Indianapolis Center
Wed 06:21:09 PM 36.3686 -85.4106 344° North 373 429 40,000  Level Indianapolis Center
Wed 06:22:11 PM 36.4669 -85.4469 343° North 369 425 40,000  Level Indianapolis Center
Wed 06:23:12 PM 36.5650 -85.4831 344° North 366 421 40,000  Level Indianapolis Center
Wed 06:24:14 PM 36.6619 -85.5186 344° North 362 417 40,000  Level Indianapolis Center
Wed 06:25:16 PM 36.7569 -85.5550 343° North 358 412 40,000  Level Indianapolis Center
Wed 06:26:19 PM 36.8544 -85.5906 344° North 355 409 40,000  Level Indianapolis Center
Wed 06:27:21 PM 36.9667 -85.6322 343° North 354 407 40,000  Level Indianapolis Center
Wed 06:28:23 PM 37.0622 -85.6692 343° North 355 409 40,000  Level Indianapolis Center
Wed 06:29:25 PM 37.1564 -85.7042 344° North 352 405 40,000  Level Indianapolis Center
Wed 06:30:27 PM 37.2500 -85.7392 343° North 345 397 40,000  Level Indianapolis Center
Wed 06:31:29 PM 37.3456 -85.7758 343° North 353 406 40,000  Level Indianapolis Center
Wed 06:32:31 PM 37.4392 -85.8108 343° North 350 403 40,000  Level Indianapolis Center
Wed 06:33:33 PM 37.5319 -85.8464 343° North 347 399 40,000  Level Indianapolis Center
Wed 06:34:35 PM 37.6436 -85.8883 343° North 349 402 40,000  Level Indianapolis Center
Wed 06:35:37 PM 37.7369 -85.9250 343° North 350 403 40,000  Level Indianapolis Center
Wed 06:36:39 PM 37.8308 -85.9608 343° North 351 404 40,000  Level Indianapolis Center
Wed 06:37:41 PM 37.9256 -85.9967 343° North 353 406 40,000  Level Indianapolis Center
Wed 06:38:43 PM 38.0186 -86.0331 343° North 351 404 40,000  Level Indianapolis Center
Wed 06:39:45 PM 38.1131 -86.0683 344° North 353 406 40,000  Level Indianapolis Center
Wed 06:40:47 PM 38.2072 -86.1069 342° North 355 409 40,000  Level Indianapolis Center
Wed 06:41:49 PM 38.3197 -86.1500 343° North 351 404 40,000  Level Indianapolis Center
Wed 06:42:51 PM 38.4147 -86.1861 343° North 354 407 40,000  Level Indianapolis Center
Wed 06:43:53 PM 38.5097 -86.2242 343° North 357 411 40,000  Level Indianapolis Center
Wed 06:44:55 PM 38.6047 -86.2608 343° North 357 411 40,000  Level Indianapolis Center
Wed 06:45:57 PM 38.6997 -86.2981 343° North 357 411 40,000  Level Indianapolis Center
Wed 06:46:59 PM 38.7944 -86.3358 343° North 357 411 40,000  Level Indianapolis Center
Wed 06:48:01 PM 38.9047 -86.3794 343° North 361 415 40,000  Level Indianapolis Center
Wed 06:49:03 PM 39.0028 -86.4178 343° North 364 419 40,000  Level Indianapolis Center
Wed 06:50:05 PM 39.1017 -86.4567 343° North 368 423 40,000  Level Indianapolis Center
Wed 06:51:07 PM 39.2008 -86.4967 343° North 370 426 40,000  Level Indianapolis Center
Wed 06:52:09 PM 39.3006 -86.5358 343° North 371 427 40,000  Level Indianapolis Center
Wed 06:53:11 PM 39.4175 -86.5836 342° North 373 429 40,000  Level Indianapolis Center
Wed 06:54:13 PM 39.5169 -86.6233 343° North 371 427 40,000  Level Indianapolis Center
Wed 06:55:15 PM 39.6169 -86.6633 343° North 371 427 40,000  Level Indianapolis Center
Wed 06:56:17 PM 39.7167 -86.7031 343° North 370 426 40,000  Level Indianapolis Center
Wed 06:57:55 PM 39.8658 -86.7639 343° North 370 426 40,000  Level Chicago Center
Wed 06:58:21 PM 39.9156 -86.7844 342° North 368 423 40,000  Level Indianapolis Center
Wed 06:59:22 PM 40.0142 -86.8256 342° North 366 421 40,000  Level Indianapolis Center
Wed 07:00:24 PM 40.1139 -86.8661 343° North 370 426 40,000  Level Indianapolis Center
Wed 07:01:01 PM 40.1794 -86.8936 342° North 370 426 40,000  Level Chicago Center
Wed 07:02:03 PM 40.2786 -86.9325 343° North 369 425 40,000  Level Chicago Center
Wed 07:03:05 PM 40.3772 -86.9736 342° North 369 425 40,000  Level Chicago Center
Wed 07:04:07 PM 40.4764 -87.0136 343° North 369 425 40,000  Level Chicago Center
Wed 07:05:09 PM 40.5914 -87.0611 343° North 370 426 40,000  Level Chicago Center
Wed 07:06:11 PM 40.6764 -87.0964 343° North 371 427 40,000 -336 Level Chicago Center
Wed 07:07:14 PM 40.7922 -87.1469 342° North 370 426 39,300 -1,152 Descending Chicago Center
Wed 07:08:16 PM 40.8989 -87.1928 342° North 399 459 37,600 -1,548 Descending Chicago Center
Wed 07:09:18 PM 41.0072 -87.2361 343° North 408 470 36,100 -1,500 Descending Chicago Center
Wed 07:10:20 PM 41.1119 -87.2817 342° North 402 463 34,500 -1,548 Descending Chicago Center
Wed 07:11:22 PM 41.2161 -87.3264 342° North 398 458 32,900 -1,742 Descending Chicago Center
Wed 07:12:24 PM 41.3406 -87.3797 342° North 395 455 30,900 -1,742 Descending Chicago Center
Wed 07:13:26 PM 41.4431 -87.4244 342° North 393 452 29,300 -1,403 Descending Chicago Center
Wed 07:14:28 PM 41.5406 -87.4664 342° North 378 435 28,000 -629 Descending Chicago Center
Wed 07:15:30 PM 41.6375 -87.5092 342° North 372 428 28,000  Level Chicago Center
Wed 07:16:32 PM 41.7544 -87.5594 342° North 373 429 28,000  Level Chicago Center
Wed 07:17:34 PM 41.8525 -87.6008 343° North 375 432 28,000  Level Chicago Center
Wed 07:18:37 PM 41.9508 -87.6439 342° North 375 432 28,000  Level Chicago Center
Wed 07:19:39 PM 42.0494 -87.6858 342° North 376 433 28,000  Level Chicago Center
Wed 07:20:41 PM 42.1469 -87.7281 342° North 373 429 28,000 -726 Level Chicago Center
Wed 07:21:43 PM 42.2653 -87.7819 341° North 375 432 26,500 -1,355 Descending Chicago Center
Wed 07:22:45 PM 42.3511 -87.8183 343° North 366 421 25,200 -1,500 Descending Chicago Center
Wed 07:23:47 PM 42.4617 -87.8689 341° North 360 414 23,400 -1,500 Descending Chicago Center
Wed 07:24:49 PM 42.5511 -87.9081 342° North 342 394 22,100 -677 Descending Chicago Center
Wed 07:25:51 PM 42.6408 -87.9483 342° North 340 391 22,000 -194 Descending Chicago Center
Wed 07:26:53 PM 42.7311 -87.9892 342° North 342 394 21,700 -968 Descending Chicago Center
Wed 07:27:55 PM 42.8200 -88.0283 342° North 337 388 20,000 -1,800 Descending Chicago Center
Wed 07:28:43 PM 42.9000 -88.0667 341° North 327 376 18,400 -1,706 Descending KMKE
Wed 07:29:37 PM 42.9833 -88.1000 344° North 309 356 17,100 -1,526 Descending KMKE
Wed 07:30:37 PM 43.0667 -88.1333 344° North 302 348 15,500 -1,500 Descending KMKE
Wed 07:31:01 PM 43.0819 -88.1447 331° Northwest 302 348 15,000 -1,395 Descending Chicago Center
Wed 07:32:03 PM 43.1611 -88.1806 342° North 300 345 13,500 -968 Descending Chicago Center
Wed 07:33:05 PM 43.2378 -88.2153 342° North 293 337 13,000 -194 Descending Chicago Center
Wed 07:34:07 PM 43.3281 -88.2564 342° North 293 337 13,100 -242 Climbing Chicago Center
Wed 07:35:09 PM 43.4042 -88.2900 342° North 291 335 12,500 -1,056 Descending Chicago Center
Wed 07:36:12 PM 43.4817 -88.3258 341° North 295 339 10,900 -1,488 Descending Chicago Center
Wed 07:37:14 PM 43.5544 -88.3592 342° North 282 325 9,400 -1,597 Descending Chicago Center
Wed 07:38:16 PM 43.6333 -88.3969 341° North 262 302 7,600 -1,645 Descending Chicago Center
Wed 07:39:18 PM 43.7042 -88.4294 342° North 267 307 6,000 -1,306 Descending Chicago Center
Wed 07:40:20 PM 43.7728 -88.4619 341° North 263 303 4,900 -1,210 Descending Chicago Center
Wed 07:41:22 PM 43.8381 -88.4961 339° North 256 295 3,500 -1,210 Descending Chicago Center
Wed 07:42:24 PM 43.9008 -88.5519 327° Northwest 235 270 2,400 -1,065 Descending Chicago Center
Wed 07:43:26 PM 43.9458 -88.5594 353° North 185 213 1,300 -677 Descending Chicago Center
Wed 07:44:28 PM 43.9744 -88.5556 North 161 185 1,000 -290 Descending Chicago Center
Wed 07:46:00 PM 43.9833 -88.5500 347° North  Level FlightAware Approximate

Login

Don't have an account? Register now (free) for customized features, flight alerts, and more!